createdAt,value
2022-12-03T00:07:52.977Z,7.33
2022-12-03T00:18:16.598Z,8.00
2022-12-03T00:23:19.319Z,10.33
2022-12-03T00:28:23.342Z,10.00
2022-12-03T00:33:32.065Z,7.33
2022-12-03T00:38:35.816Z,8.67
2022-12-03T00:43:40.001Z,4.00
2022-12-03T00:48:48.953Z,8.67
2022-12-03T00:59:12.481Z,5.67
2022-12-03T01:04:17.571Z,8.00
2022-12-03T01:09:20.406Z,8.00
2022-12-03T01:14:28.645Z,4.33
2022-12-03T01:24:59.547Z,10.00
2022-12-03T01:30:02.535Z,10.33
2022-12-03T01:35:06.373Z,9.67
2022-12-03T01:40:20.660Z,8.33
2022-12-03T01:50:50.561Z,8.33
2022-12-03T01:55:54.413Z,11.00
2022-12-03T02:00:59.180Z,5.00
2022-12-03T02:06:10.426Z,8.67
2022-12-03T02:11:23.466Z,11.00
2022-12-03T02:16:26.515Z,8.33
2022-12-03T02:21:49.563Z,11.33
2022-12-03T02:26:57.661Z,6.33
2022-12-03T02:32:00.652Z,12.00
2022-12-03T02:42:34.084Z,8.00
2022-12-03T02:58:30.858Z,7.67
2022-12-03T03:03:34.555Z,10.33
2022-12-03T03:08:40.221Z,8.67
2022-12-03T03:13:48.750Z,8.25
2022-12-03T03:18:52.363Z,9.33
2022-12-03T03:23:55.387Z,10.00
2022-12-03T03:29:03.496Z,11.67
2022-12-03T03:39:29.349Z,8.00
2022-12-03T03:49:54.948Z,7.33
2022-12-03T03:54:58.043Z,9.00
2022-12-03T04:15:49.871Z,7.67
2022-12-03T04:20:53.319Z,7.67
2022-12-03T04:31:31.570Z,5.00
2022-12-03T04:36:34.993Z,11.33
2022-12-03T04:41:37.795Z,9.67
2022-12-03T04:46:46.120Z,6.67
2022-12-03T04:51:48.912Z,8.67
2022-12-03T04:56:51.811Z,8.00
2022-12-03T05:02:01.012Z,8.33
2022-12-03T05:07:03.824Z,9.00
2022-12-03T05:12:07.078Z,7.33
2022-12-03T05:17:15.333Z,10.00
2022-12-03T05:22:18.109Z,8.00
2022-12-03T05:27:23.876Z,10.33
2022-12-03T05:32:33.264Z,11.67
2022-12-03T05:37:37.035Z,11.67
2022-12-03T05:42:40.142Z,8.33
2022-12-03T05:47:48.267Z,7.33
2022-12-03T05:52:53.560Z,10.33
2022-12-03T05:57:57.516Z,4.00
2022-12-03T06:03:07.234Z,11.33
2022-12-03T06:08:10.285Z,8.67
2022-12-03T06:13:13.079Z,9.00
2022-12-03T06:18:21.233Z,10.00
2022-12-03T06:23:24.208Z,7.00
2022-12-03T06:28:27.121Z,11.67
2022-12-03T07:00:17.773Z,9.33
2022-12-03T07:05:20.585Z,7.67
2022-12-03T07:10:23.828Z,11.00
2022-12-03T07:15:32.230Z,8.67
2022-12-03T07:31:17.540Z,10.67
2022-12-03T07:41:46.827Z,2.00
2022-12-03T07:46:50.889Z,11.00
2022-12-03T07:51:53.964Z,9.33
2022-12-03T07:57:04.054Z,10.33
2022-12-03T08:02:07.359Z,10.67
2022-12-03T08:07:10.145Z,8.33
2022-12-03T08:12:25.632Z,7.50
2022-12-03T08:17:29.664Z,7.00
2022-12-03T08:22:32.476Z,7.67
2022-12-03T08:27:40.599Z,9.33
2022-12-03T08:38:15.066Z,8.33
2022-12-03T08:43:24.464Z,9.33
2022-12-03T08:48:34.559Z,5.00
2022-12-03T08:53:45.070Z,10.67
2022-12-03T09:25:41.315Z,8.67
2022-12-03T09:30:44.531Z,8.33
2022-12-03T09:35:47.351Z,7.33
2022-12-03T09:40:56.565Z,5.67
2022-12-03T09:51:26.661Z,7.00
2022-12-03T09:56:29.669Z,7.67
2022-12-03T10:01:32.766Z,8.33
2022-12-03T10:06:45.780Z,8.00
2022-12-03T10:11:49.324Z,8.67
2022-12-03T10:16:52.890Z,10.33
2022-12-03T10:22:04.743Z,4.67
2022-12-03T10:27:23.269Z,11.67
2022-12-03T10:32:27.814Z,11.00
2022-12-03T10:37:36.047Z,8.67
2022-12-03T10:48:19.274Z,4.33
2022-12-03T10:53:24.500Z,10.67
2022-12-03T11:15:16.410Z,9.67
2022-12-03T11:26:56.912Z,11.67
2022-12-03T11:37:37.220Z,11.00
2022-12-03T11:42:41.615Z,9.67
2022-12-03T11:47:48.083Z,10.33
2022-12-03T11:53:02.870Z,11.00
2022-12-03T12:03:45.212Z,7.67
2022-12-03T12:08:57.441Z,10.00
2022-12-03T12:14:01.674Z,11.33
2022-12-03T12:19:34.501Z,10.67
2022-12-03T12:24:49.279Z,11.00
2022-12-03T12:30:01.887Z,13.67
2022-12-03T12:40:42.900Z,11.33
2022-12-03T12:51:23.160Z,10.00
2022-12-03T12:56:28.566Z,9.00
2022-12-03T13:01:34.405Z,8.00
2022-12-03T13:06:45.122Z,8.00
2022-12-03T13:17:25.085Z,11.33
2022-12-03T13:33:21.632Z,11.00
2022-12-03T13:38:25.420Z,11.25
2022-12-03T13:43:33.273Z,10.25
2022-12-03T13:48:41.423Z,9.33
2022-12-03T13:59:25.836Z,7.50
2022-12-03T14:04:35.402Z,11.00
2022-12-03T14:20:33.448Z,8.75
2022-12-03T14:25:38.500Z,10.50
2022-12-03T14:41:26.701Z,10.25
2022-12-03T14:46:29.605Z,13.25
2022-12-03T15:07:51.234Z,16.50
2022-12-03T15:18:19.650Z,8.50
2022-12-03T15:23:22.372Z,12.50
2022-12-03T15:28:26.206Z,17.00
2022-12-03T15:33:34.400Z,11.75
2022-12-03T15:38:37.420Z,12.00
2022-12-03T15:43:40.237Z,13.75
2022-12-03T15:48:49.948Z,12.00
2022-12-03T15:53:52.932Z,13.25
2022-12-03T15:58:55.744Z,14.75
2022-12-03T16:04:04.685Z,11.25
2022-12-03T16:14:47.679Z,16.75
2022-12-03T16:19:57.066Z,19.50
2022-12-03T16:24:59.885Z,14.00
2022-12-03T16:30:03.268Z,12.25
2022-12-03T16:45:57.836Z,16.50
2022-12-03T16:51:00.713Z,8.25
2022-12-03T16:56:04.100Z,12.25
2022-12-03T17:01:14.183Z,17.00
2022-12-03T17:06:17.081Z,13.50
2022-12-03T17:11:20.514Z,2.25
2022-12-03T17:16:28.908Z,13.50
2022-12-03T17:21:34.944Z,13.00
2022-12-03T17:26:38.112Z,14.00
2022-12-03T17:31:46.510Z,10.00
2022-12-03T17:42:15.818Z,14.25
2022-12-03T17:52:41.462Z,16.25
2022-12-03T17:57:47.553Z,15.00
2022-12-03T18:02:50.507Z,17.25
2022-12-03T18:07:59.589Z,15.25
2022-12-03T18:34:39.244Z,16.50
2022-12-03T18:39:46.189Z,18.00
2022-12-03T19:00:59.029Z,14.75
2022-12-03T19:11:27.290Z,17.00
2022-12-03T19:16:31.316Z,11.50
2022-12-03T19:21:34.244Z,17.25
2022-12-03T19:26:42.564Z,14.75
2022-12-03T19:31:45.396Z,21.00
2022-12-03T19:47:27.383Z,15.25
2022-12-03T19:52:38.039Z,19.50
2022-12-03T19:57:41.586Z,17.25
2022-12-03T20:02:50.364Z,16.50
2022-12-03T20:13:18.123Z,21.25
2022-12-03T20:34:05.966Z,14.25
2022-12-03T20:39:11.473Z,16.25
2022-12-03T20:44:14.468Z,19.25
2022-12-03T20:49:22.696Z,16.25
2022-12-03T20:54:25.493Z,17.50
2022-12-03T20:59:29.149Z,16.50
2022-12-03T21:04:38.843Z,20.75
2022-12-03T21:09:42.681Z,18.00
2022-12-03T21:14:46.955Z,7.00
2022-12-03T21:25:22.004Z,16.75
2022-12-03T21:30:25.242Z,17.50
2022-12-03T21:41:02.448Z,18.50
2022-12-03T21:51:26.986Z,17.50
2022-12-03T21:56:30.115Z,13.50
2022-12-03T22:01:34.410Z,19.25
2022-12-03T22:06:42.759Z,20.25
2022-12-03T22:11:45.567Z,19.25
2022-12-03T22:16:48.342Z,20.25
2022-12-03T22:21:56.479Z,17.25
2022-12-03T22:26:59.231Z,15.75
2022-12-03T22:32:03.190Z,17.50
2022-12-03T22:37:11.450Z,10.00
2022-12-03T22:42:14.833Z,16.50
2022-12-03T22:47:18.849Z,19.50
2022-12-03T22:52:27.386Z,19.25
2022-12-03T22:57:30.379Z,19.00
2022-12-03T23:02:33.245Z,21.25
2022-12-03T23:13:02.841Z,19.50
2022-12-03T23:18:05.912Z,19.75
2022-12-03T23:23:08.707Z,11.75
2022-12-03T23:28:16.872Z,19.25
2022-12-03T23:33:20.070Z,17.25
2022-12-03T23:54:34.025Z,18.50
2022-12-03T23:59:37.702Z,19.25
